sensor_id;sensor_type;location;lat;lon;timestamp;temperature;humidity
46926;DHT22;32667;48.248;-1.700;2023-08-17T00:00:12;21.20;68.40
46926;DHT22;32667;48.248;-1.700;2023-08-17T00:02:42;21.20;68.40
46926;DHT22;32667;48.248;-1.700;2023-08-17T00:05:10;21.10;68.40
46926;DHT22;32667;48.248;-1.700;2023-08-17T00:07:36;21.10;68.50
46926;DHT22;32667;48.248;-1.700;2023-08-17T00:10:02;21.10;68.60
46926;DHT22;32667;48.248;-1.700;2023-08-17T00:12:34;21.00;68.60
46926;DHT22;32667;48.248;-1.700;2023-08-17T00:15:00;21.00;68.60
46926;DHT22;32667;48.248;-1.700;2023-08-17T00:17:25;21.00;68.70
46926;DHT22;32667;48.248;-1.700;2023-08-17T00:19:51;21.00;68.70
46926;DHT22;32667;48.248;-1.700;2023-08-17T00:22:17;20.90;68.70
46926;DHT22;32667;48.248;-1.700;2023-08-17T00:24:45;20.90;68.80
46926;DHT22;32667;48.248;-1.700;2023-08-17T00:27:11;20.80;68.80
46926;DHT22;32667;48.248;-1.700;2023-08-17T00:29:37;20.80;68.90
46926;DHT22;32667;48.248;-1.700;2023-08-17T00:32:03;20.70;68.90
46926;DHT22;32667;48.248;-1.700;2023-08-17T00:34:29;20.70;69.00
46926;DHT22;32667;48.248;-1.700;2023-08-17T00:36:57;20.70;69.00
46926;DHT22;32667;48.248;-1.700;2023-08-17T00:39:25;20.60;69.00
46926;DHT22;32667;48.248;-1.700;2023-08-17T00:41:51;20.60;69.00
46926;DHT22;32667;48.248;-1.700;2023-08-17T00:44:27;20.60;69.10
46926;DHT22;32667;48.248;-1.700;2023-08-17T00:46:53;20.60;69.10
46926;DHT22;32667;48.248;-1.700;2023-08-17T00:49:18;20.50;69.00
46926;DHT22;32667;48.248;-1.700;2023-08-17T00:51:44;20.50;69.10
46926;DHT22;32667;48.248;-1.700;2023-08-17T00:54:13;20.50;69.00
46926;DHT22;32667;48.248;-1.700;2023-08-17T00:56:38;20.50;69.00
46926;DHT22;32667;48.248;-1.700;2023-08-17T00:59:04;20.60;69.00
46926;DHT22;32667;48.248;-1.700;2023-08-17T01:01:31;20.50;68.90
46926;DHT22;32667;48.248;-1.700;2023-08-17T01:04:05;20.60;68.90
46926;DHT22;32667;48.248;-1.700;2023-08-17T01:06:33;20.60;68.80
46926;DHT22;32667;48.248;-1.700;2023-08-17T01:08:59;20.60;68.80
46926;DHT22;32667;48.248;-1.700;2023-08-17T01:14:04;20.60;68.80
46926;DHT22;32667;48.248;-1.700;2023-08-17T01:19:29;20.60;68.80
46926;DHT22;32667;48.248;-1.700;2023-08-17T01:22:03;20.60;68.80
46926;DHT22;32667;48.248;-1.700;2023-08-17T01:24:31;20.60;68.80
46926;DHT22;32667;48.248;-1.700;2023-08-17T01:26:59;20.60;68.70
46926;DHT22;32667;48.248;-1.700;2023-08-17T01:29:25;20.50;68.60
46926;DHT22;32667;48.248;-1.700;2023-08-17T01:32:36;20.50;68.70
46926;DHT22;32667;48.248;-1.700;2023-08-17T01:35:16;20.60;68.70
46926;DHT22;32667;48.248;-1.700;2023-08-17T01:37:58;20.60;68.70
46926;DHT22;32667;48.248;-1.700;2023-08-17T01:40:31;20.60;68.70
46926;DHT22;32667;48.248;-1.700;2023-08-17T01:43:01;20.60;68.60
46926;DHT22;32667;48.248;-1.700;2023-08-17T01:45:30;20.60;68.50
46926;DHT22;32667;48.248;-1.700;2023-08-17T01:47:56;20.70;68.60
46926;DHT22;32667;48.248;-1.700;2023-08-17T01:50:22;20.70;68.50
46926;DHT22;32667;48.248;-1.700;2023-08-17T01:52:56;20.70;68.50
46926;DHT22;32667;48.248;-1.700;2023-08-17T01:55:29;20.60;68.40
46926;DHT22;32667;48.248;-1.700;2023-08-17T01:58:12;20.70;68.50
46926;DHT22;32667;48.248;-1.700;2023-08-17T02:00:40;20.70;68.40
46926;DHT22;32667;48.248;-1.700;2023-08-17T02:03:05;20.70;68.40
46926;DHT22;32667;48.248;-1.700;2023-08-17T02:05:31;20.70;68.40
46926;DHT22;32667;48.248;-1.700;2023-08-17T02:08:00;20.70;68.80
46926;DHT22;32667;48.248;-1.700;2023-08-17T02:10:25;20.70;68.50
46926;DHT22;32667;48.248;-1.700;2023-08-17T02:12:53;20.60;68.40
46926;DHT22;32667;48.248;-1.700;2023-08-17T02:15:19;20.70;68.50
46926;DHT22;32667;48.248;-1.700;2023-08-17T02:17:45;20.70;68.60
46926;DHT22;32667;48.248;-1.700;2023-08-17T02:20:11;20.60;68.50
46926;DHT22;32667;48.248;-1.700;2023-08-17T02:22:39;20.60;68.60
46926;DHT22;32667;48.248;-1.700;2023-08-17T02:25:05;20.60;68.70
46926;DHT22;32667;48.248;-1.700;2023-08-17T02:27:35;20.50;68.70
46926;DHT22;32667;48.248;-1.700;2023-08-17T02:30:04;20.50;68.70
46926;DHT22;32667;48.248;-1.700;2023-08-17T02:32:30;20.50;68.70
46926;DHT22;32667;48.248;-1.700;2023-08-17T02:34:58;20.40;68.70
46926;DHT22;32667;48.248;-1.700;2023-08-17T02:37:26;20.40;68.80
46926;DHT22;32667;48.248;-1.700;2023-08-17T02:39:51;20.40;68.80
46926;DHT22;32667;48.248;-1.700;2023-08-17T02:42:17;20.40;68.90
46926;DHT22;32667;48.248;-1.700;2023-08-17T02:44:45;20.30;68.80
46926;DHT22;32667;48.248;-1.700;2023-08-17T02:47:11;20.30;68.80
46926;DHT22;32667;48.248;-1.700;2023-08-17T02:49:46;20.30;68.80
46926;DHT22;32667;48.248;-1.700;2023-08-17T02:52:16;20.30;68.80
46926;DHT22;32667;48.248;-1.700;2023-08-17T02:54:42;20.30;68.80
46926;DHT22;32667;48.248;-1.700;2023-08-17T02:57:11;20.30;68.80
46926;DHT22;32667;48.248;-1.700;2023-08-17T02:59:37;20.30;68.90
46926;DHT22;32667;48.248;-1.700;2023-08-17T03:02:08;20.30;68.90
46926;DHT22;32667;48.248;-1.700;2023-08-17T03:04:35;20.30;69.00
46926;DHT22;32667;48.248;-1.700;2023-08-17T03:07:12;20.30;69.00
46926;DHT22;32667;48.248;-1.700;2023-08-17T03:09:40;20.30;68.90
46926;DHT22;32667;48.248;-1.700;2023-08-17T03:12:08;20.20;68.80
46926;DHT22;32667;48.248;-1.700;2023-08-17T03:14:34;20.20;68.80
46926;DHT22;32667;48.248;-1.700;2023-08-17T03:17:00;20.20;68.80
46926;DHT22;32667;48.248;-1.700;2023-08-17T03:19:30;20.20;68.80
46926;DHT22;32667;48.248;-1.700;2023-08-17T03:22:00;20.20;68.90
46926;DHT22;32667;48.248;-1.700;2023-08-17T03:24:26;20.20;68.90
46926;DHT22;32667;48.248;-1.700;2023-08-17T03:26:52;20.10;68.90
46926;DHT22;32667;48.248;-1.700;2023-08-17T03:29:18;20.10;69.00
46926;DHT22;32667;48.248;-1.700;2023-08-17T03:31:43;20.10;69.00
46926;DHT22;32667;48.248;-1.700;2023-08-17T03:34:11;20.10;69.00
46926;DHT22;32667;48.248;-1.700;2023-08-17T03:36:39;20.00;69.00
46926;DHT22;32667;48.248;-1.700;2023-08-17T03:39:05;20.00;69.10
46926;DHT22;32667;48.248;-1.700;2023-08-17T03:41:31;20.00;69.10
46926;DHT22;32667;48.248;-1.700;2023-08-17T03:44:01;20.00;69.80
46926;DHT22;32667;48.248;-1.700;2023-08-17T03:46:29;20.00;69.20
46926;DHT22;32667;48.248;-1.700;2023-08-17T03:49:00;20.00;69.20
46926;DHT22;32667;48.248;-1.700;2023-08-17T03:51:28;19.90;69.10
46926;DHT22;32667;48.248;-1.700;2023-08-17T03:53:56;19.90;69.10
46926;DHT22;32667;48.248;-1.700;2023-08-17T03:56:22;19.90;69.10
46926;DHT22;32667;48.248;-1.700;2023-08-17T03:58:48;19.90;69.10
46926;DHT22;32667;48.248;-1.700;2023-08-17T04:01:13;19.90;69.10
46926;DHT22;32667;48.248;-1.700;2023-08-17T04:03:39;19.90;69.10
46926;DHT22;32667;48.248;-1.700;2023-08-17T04:06:09;19.90;69.10
46926;DHT22;32667;48.248;-1.700;2023-08-17T04:08:40;19.90;69.10
46926;DHT22;32667;48.248;-1.700;2023-08-17T04:11:08;19.80;69.10
46926;DHT22;32667;48.248;-1.700;2023-08-17T04:13:36;19.80;69.10
46926;DHT22;32667;48.248;-1.700;2023-08-17T04:16:08;19.80;69.10
46926;DHT22;32667;48.248;-1.700;2023-08-17T04:18:38;19.80;69.20
46926;DHT22;32667;48.248;-1.700;2023-08-17T04:21:11;19.70;69.10
46926;DHT22;32667;48.248;-1.700;2023-08-17T04:23:47;19.70;69.10
46926;DHT22;32667;48.248;-1.700;2023-08-17T04:26:13;19.80;69.20
46926;DHT22;32667;48.248;-1.700;2023-08-17T04:28:43;19.70;69.20
46926;DHT22;32667;48.248;-1.700;2023-08-17T04:31:09;19.70;69.20
46926;DHT22;32667;48.248;-1.700;2023-08-17T04:33:37;19.70;69.20
46926;DHT22;32667;48.248;-1.700;2023-08-17T04:36:03;19.70;69.20
46926;DHT22;32667;48.248;-1.700;2023-08-17T04:38:29;19.70;69.80
46926;DHT22;32667;48.248;-1.700;2023-08-17T04:40:55;19.70;69.20
46926;DHT22;32667;48.248;-1.700;2023-08-17T04:43:22;19.70;69.20
46926;DHT22;32667;48.248;-1.700;2023-08-17T04:45:48;19.60;69.20
46926;DHT22;32667;48.248;-1.700;2023-08-17T04:48:14;19.60;69.20
46926;DHT22;32667;48.248;-1.700;2023-08-17T04:50:45;19.60;69.20
46926;DHT22;32667;48.248;-1.700;2023-08-17T04:53:13;19.60;69.80
46926;DHT22;32667;48.248;-1.700;2023-08-17T04:55:38;19.60;69.20
46926;DHT22;32667;48.248;-1.700;2023-08-17T04:58:07;19.60;69.20
46926;DHT22;32667;48.248;-1.700;2023-08-17T05:00:35;19.50;69.20
46926;DHT22;32667;48.248;-1.700;2023-08-17T05:03:03;19.50;69.20
46926;DHT22;32667;48.248;-1.700;2023-08-17T05:05:31;19.50;69.30
46926;DHT22;32667;48.248;-1.700;2023-08-17T05:07:57;19.50;69.40
46926;DHT22;32667;48.248;-1.700;2023-08-17T05:10:22;19.50;69.40
46926;DHT22;32667;48.248;-1.700;2023-08-17T05:12:48;19.40;69.40
46926;DHT22;32667;48.248;-1.700;2023-08-17T05:15:14;19.40;69.40
46926;DHT22;32667;48.248;-1.700;2023-08-17T05:17:49;19.40;69.30
46926;DHT22;32667;48.248;-1.700;2023-08-17T05:20:15;19.40;69.30
46926;DHT22;32667;48.248;-1.700;2023-08-17T05:22:44;19.40;69.30
46926;DHT22;32667;48.248;-1.700;2023-08-17T05:25:12;19.50;69.30
46926;DHT22;32667;48.248;-1.700;2023-08-17T05:27:38;19.50;69.20
46926;DHT22;32667;48.248;-1.700;2023-08-17T05:30:04;19.50;69.10
46926;DHT22;32667;48.248;-1.700;2023-08-17T05:32:32;19.50;69.10
46926;DHT22;32667;48.248;-1.700;2023-08-17T05:35:00;19.60;69.10
46926;DHT22;32667;48.248;-1.700;2023-08-17T05:37:35;19.60;69.00
46926;DHT22;32667;48.248;-1.700;2023-08-17T05:40:06;19.60;69.00
46926;DHT22;32667;48.248;-1.700;2023-08-17T05:42:36;19.60;68.90
46926;DHT22;32667;48.248;-1.700;2023-08-17T05:45:02;19.60;68.90
46926;DHT22;32667;48.248;-1.700;2023-08-17T05:47:30;19.70;68.90
46926;DHT22;32667;48.248;-1.700;2023-08-17T05:50:03;19.70;68.90
46926;DHT22;32667;48.248;-1.700;2023-08-17T05:52:29;19.70;68.70
46926;DHT22;32667;48.248;-1.700;2023-08-17T05:54:55;19.70;68.60
46926;DHT22;32667;48.248;-1.700;2023-08-17T05:57:20;19.80;68.60
46926;DHT22;32667;48.248;-1.700;2023-08-17T05:59:46;19.80;68.60
46926;DHT22;32667;48.248;-1.700;2023-08-17T06:02:14;19.90;68.60
46926;DHT22;32667;48.248;-1.700;2023-08-17T06:04:42;19.80;68.50
46926;DHT22;32667;48.248;-1.700;2023-08-17T06:07:12;19.90;68.60
46926;DHT22;32667;48.248;-1.700;2023-08-17T06:09:40;19.90;68.50
46926;DHT22;32667;48.248;-1.700;2023-08-17T06:12:09;19.90;68.50
46926;DHT22;32667;48.248;-1.700;2023-08-17T06:14:35;19.90;68.50
46926;DHT22;32667;48.248;-1.700;2023-08-17T06:17:01;19.90;68.40
46926;DHT22;32667;48.248;-1.700;2023-08-17T06:19:26;19.90;68.40
46926;DHT22;32667;48.248;-1.700;2023-08-17T06:21:52;20.00;68.50
46926;DHT22;32667;48.248;-1.700;2023-08-17T06:24:20;20.00;68.60
46926;DHT22;32667;48.248;-1.700;2023-08-17T06:26:48;20.10;68.40
46926;DHT22;32667;48.248;-1.700;2023-08-17T06:29:16;20.10;68.30
46926;DHT22;32667;48.248;-1.700;2023-08-17T06:32:07;20.10;68.20
46926;DHT22;32667;48.248;-1.700;2023-08-17T06:34:35;20.20;68.10
46926;DHT22;32667;48.248;-1.700;2023-08-17T06:37:06;20.30;68.00
46926;DHT22;32667;48.248;-1.700;2023-08-17T06:39:32;20.30;68.00
46926;DHT22;32667;48.248;-1.700;2023-08-17T06:42:03;20.30;67.90
46926;DHT22;32667;48.248;-1.700;2023-08-17T06:44:31;20.30;67.90
46926;DHT22;32667;48.248;-1.700;2023-08-17T06:46:57;20.40;68.00
46926;DHT22;32667;48.248;-1.700;2023-08-17T06:49:26;20.50;68.00
46926;DHT22;32667;48.248;-1.700;2023-08-17T06:51:54;20.60;67.80
46926;DHT22;32667;48.248;-1.700;2023-08-17T06:54:20;20.70;67.70
46926;DHT22;32667;48.248;-1.700;2023-08-17T06:56:46;20.80;67.60
46926;DHT22;32667;48.248;-1.700;2023-08-17T06:59:14;20.90;67.40
46926;DHT22;32667;48.248;-1.700;2023-08-17T07:01:40;21.00;67.20
46926;DHT22;32667;48.248;-1.700;2023-08-17T07:04:08;21.20;67.10
46926;DHT22;32667;48.248;-1.700;2023-08-17T07:06:36;21.30;66.80
46926;DHT22;32667;48.248;-1.700;2023-08-17T07:09:01;21.50;66.70
46926;DHT22;32667;48.248;-1.700;2023-08-17T07:11:38;21.70;66.50
46926;DHT22;32667;48.248;-1.700;2023-08-17T07:14:06;21.80;66.30
46926;DHT22;32667;48.248;-1.700;2023-08-17T07:16:39;21.90;66.30
46926;DHT22;32667;48.248;-1.700;2023-08-17T07:19:05;22.00;66.20
46926;DHT22;32667;48.248;-1.700;2023-08-17T07:21:31;22.00;66.20
46926;DHT22;32667;48.248;-1.700;2023-08-17T07:23:57;22.10;66.20
46926;DHT22;32667;48.248;-1.700;2023-08-17T07:26:25;22.20;66.00
46926;DHT22;32667;48.248;-1.700;2023-08-17T07:28:53;22.40;65.90
46926;DHT22;32667;48.248;-1.700;2023-08-17T07:31:19;22.50;65.80
46926;DHT22;32667;48.248;-1.700;2023-08-17T07:33:44;22.70;65.60
46926;DHT22;32667;48.248;-1.700;2023-08-17T07:36:10;22.70;65.50
46926;DHT22;32667;48.248;-1.700;2023-08-17T07:38:36;22.80;65.50
46926;DHT22;32667;48.248;-1.700;2023-08-17T07:41:04;22.80;65.50
46926;DHT22;32667;48.248;-1.700;2023-08-17T07:43:30;22.90;65.60
46926;DHT22;32667;48.248;-1.700;2023-08-17T07:46:05;23.00;65.50
46926;DHT22;32667;48.248;-1.700;2023-08-17T07:48:31;23.20;65.40
46926;DHT22;32667;48.248;-1.700;2023-08-17T07:51:01;23.20;65.30
46926;DHT22;32667;48.248;-1.700;2023-08-17T07:53:32;23.20;65.40
46926;DHT22;32667;48.248;-1.700;2023-08-17T07:55:58;23.20;65.60
46926;DHT22;32667;48.248;-1.700;2023-08-17T07:58:26;23.20;65.60
46926;DHT22;32667;48.248;-1.700;2023-08-17T08:00:51;23.20;65.80
46926;DHT22;32667;48.248;-1.700;2023-08-17T08:03:17;23.30;65.70
46926;DHT22;32667;48.248;-1.700;2023-08-17T08:08:42;23.50;65.50
46926;DHT22;32667;48.248;-1.700;2023-08-17T08:11:09;23.60;65.30
46926;DHT22;32667;48.248;-1.700;2023-08-17T08:13:35;23.70;65.30
46926;DHT22;32667;48.248;-1.700;2023-08-17T08:16:00;23.70;65.30
46926;DHT22;32667;48.248;-1.700;2023-08-17T08:18:26;23.90;65.20
46926;DHT22;32667;48.248;-1.700;2023-08-17T08:20:52;23.90;65.00
46926;DHT22;32667;48.248;-1.700;2023-08-17T08:23:18;24.00;65.10
46926;DHT22;32667;48.248;-1.700;2023-08-17T08:25:43;24.00;65.00
46926;DHT22;32667;48.248;-1.700;2023-08-17T08:28:12;24.10;65.10
46926;DHT22;32667;48.248;-1.700;2023-08-17T08:30:45;24.20;65.10
46926;DHT22;32667;48.248;-1.700;2023-08-17T08:33:13;24.20;65.00
46926;DHT22;32667;48.248;-1.700;2023-08-17T08:35:38;24.20;65.00
46926;DHT22;32667;48.248;-1.700;2023-08-17T08:38:04;24.20;64.90
46926;DHT22;32667;48.248;-1.700;2023-08-17T08:40:30;24.30;65.00
46926;DHT22;32667;48.248;-1.700;2023-08-17T08:42:59;24.30;65.10
46926;DHT22;32667;48.248;-1.700;2023-08-17T08:45:28;24.20;65.20
46926;DHT22;32667;48.248;-1.700;2023-08-17T08:47:56;24.30;65.20
46926;DHT22;32667;48.248;-1.700;2023-08-17T08:50:26;24.30;65.30
46926;DHT22;32667;48.248;-1.700;2023-08-17T08:53:01;24.40;65.20
46926;DHT22;32667;48.248;-1.700;2023-08-17T08:55:52;24.50;65.10
46926;DHT22;32667;48.248;-1.700;2023-08-17T08:58:25;24.60;65.00
46926;DHT22;32667;48.248;-1.700;2023-08-17T09:00:53;24.70;64.90
46926;DHT22;32667;48.248;-1.700;2023-08-17T09:03:22;24.80;64.70
46926;DHT22;32667;48.248;-1.700;2023-08-17T09:05:49;24.90;64.80
46926;DHT22;32667;48.248;-1.700;2023-08-17T09:08:22;25.00;64.70
46926;DHT22;32667;48.248;-1.700;2023-08-17T09:10:50;25.10;64.50
46926;DHT22;32667;48.248;-1.700;2023-08-17T09:13:21;25.20;64.50
46926;DHT22;32667;48.248;-1.700;2023-08-17T09:15:47;25.30;64.40
46926;DHT22;32667;48.248;-1.700;2023-08-17T09:18:13;25.30;64.30
46926;DHT22;32667;48.248;-1.700;2023-08-17T09:20:42;25.40;64.30
46926;DHT22;32667;48.248;-1.700;2023-08-17T09:23:21;25.50;64.30
46926;DHT22;32667;48.248;-1.700;2023-08-17T09:25:50;25.60;64.10
46926;DHT22;32667;48.248;-1.700;2023-08-17T09:28:23;25.70;64.00
46926;DHT22;32667;48.248;-1.700;2023-08-17T09:31:01;25.80;64.00
46926;DHT22;32667;48.248;-1.700;2023-08-17T09:33:31;25.90;64.00
46926;DHT22;32667;48.248;-1.700;2023-08-17T09:35:58;25.90;63.90
46926;DHT22;32667;48.248;-1.700;2023-08-17T09:38:27;26.00;63.90
46926;DHT22;32667;48.248;-1.700;2023-08-17T09:40:58;26.10;63.90
46926;DHT22;32667;48.248;-1.700;2023-08-17T09:43:27;26.20;63.90
46926;DHT22;32667;48.248;-1.700;2023-08-17T09:45:58;26.30;63.80
46926;DHT22;32667;48.248;-1.700;2023-08-17T09:48:25;26.40;63.80
46926;DHT22;32667;48.248;-1.700;2023-08-17T09:50:56;26.40;63.60
46926;DHT22;32667;48.248;-1.700;2023-08-17T09:53:22;26.50;63.60
46926;DHT22;32667;48.248;-1.700;2023-08-17T09:55:49;26.60;63.60
46926;DHT22;32667;48.248;-1.700;2023-08-17T09:58:17;26.70;63.50
46926;DHT22;32667;48.248;-1.700;2023-08-17T10:00:49;26.80;63.40
46926;DHT22;32667;48.248;-1.700;2023-08-17T10:03:19;26.90;63.40
46926;DHT22;32667;48.248;-1.700;2023-08-17T10:05:56;27.00;64.00
46926;DHT22;32667;48.248;-1.700;2023-08-17T10:08:28;27.00;63.30
46926;DHT22;32667;48.248;-1.700;2023-08-17T10:11:02;27.10;63.30
46926;DHT22;32667;48.248;-1.700;2023-08-17T10:13:35;27.20;63.30
46926;DHT22;32667;48.248;-1.700;2023-08-17T10:18:39;27.30;63.20
46926;DHT22;32667;48.248;-1.700;2023-08-17T10:22:00;27.40;63.20
46926;DHT22;32667;48.248;-1.700;2023-08-17T10:23:58;27.40;63.30
46926;DHT22;32667;48.248;-1.700;2023-08-17T10:26:24;27.40;63.40
46926;DHT22;32667;48.248;-1.700;2023-08-17T10:28:53;27.40;63.30
46926;DHT22;32667;48.248;-1.700;2023-08-17T10:31:20;27.50;63.40
46926;DHT22;32667;48.248;-1.700;2023-08-17T10:33:49;27.60;63.30
46926;DHT22;32667;48.248;-1.700;2023-08-17T10:36:20;27.70;63.30
46926;DHT22;32667;48.248;-1.700;2023-08-17T10:38:47;27.80;63.20
46926;DHT22;32667;48.248;-1.700;2023-08-17T10:41:17;27.80;63.10
46926;DHT22;32667;48.248;-1.700;2023-08-17T10:44:13;27.90;63.00
46926;DHT22;32667;48.248;-1.700;2023-08-17T10:46:39;28.00;63.00
46926;DHT22;32667;48.248;-1.700;2023-08-17T10:49:26;28.10;62.90
46926;DHT22;32667;48.248;-1.700;2023-08-17T10:52:04;28.10;62.90
46926;DHT22;32667;48.248;-1.700;2023-08-17T10:54:45;28.20;63.00
46926;DHT22;32667;48.248;-1.700;2023-08-17T11:00:17;28.30;63.20
46926;DHT22;32667;48.248;-1.700;2023-08-17T11:02:53;28.30;62.90
46926;DHT22;32667;48.248;-1.700;2023-08-17T11:05:46;28.40;62.90
46926;DHT22;32667;48.248;-1.700;2023-08-17T11:08:39;28.50;62.90
46926;DHT22;32667;48.248;-1.700;2023-08-17T11:11:13;28.50;62.90
46926;DHT22;32667;48.248;-1.700;2023-08-17T11:13:53;28.60;63.00
46926;DHT22;32667;48.248;-1.700;2023-08-17T11:16:21;28.60;63.00
46926;DHT22;32667;48.248;-1.700;2023-08-17T11:18:47;28.60;62.90
46926;DHT22;32667;48.248;-1.700;2023-08-17T11:21:17;28.70;62.80
46926;DHT22;32667;48.248;-1.700;2023-08-17T11:23:43;28.80;62.80
46926;DHT22;32667;48.248;-1.700;2023-08-17T11:26:09;28.90;62.90
46926;DHT22;32667;48.248;-1.700;2023-08-17T11:28:43;28.90;62.80
46926;DHT22;32667;48.248;-1.700;2023-08-17T11:31:12;28.90;62.80
46926;DHT22;32667;48.248;-1.700;2023-08-17T11:33:39;29.00;62.90
46926;DHT22;32667;48.248;-1.700;2023-08-17T11:36:07;29.00;62.80
46926;DHT22;32667;48.248;-1.700;2023-08-17T11:38:37;29.00;63.00
46926;DHT22;32667;48.248;-1.700;2023-08-17T11:41:06;29.00;63.00
46926;DHT22;32667;48.248;-1.700;2023-08-17T11:43:34;29.00;63.10
46926;DHT22;32667;48.248;-1.700;2023-08-17T11:46:03;29.00;63.10
46926;DHT22;32667;48.248;-1.700;2023-08-17T11:48:30;29.00;63.20
46926;DHT22;32667;48.248;-1.700;2023-08-17T11:50:58;29.00;63.20
46926;DHT22;32667;48.248;-1.700;2023-08-17T11:53:24;29.00;63.30
46926;DHT22;32667;48.248;-1.700;2023-08-17T11:55:50;29.10;63.30
46926;DHT22;32667;48.248;-1.700;2023-08-17T11:58:31;29.10;63.20
46926;DHT22;32667;48.248;-1.700;2023-08-17T12:01:01;29.20;63.10
46926;DHT22;32667;48.248;-1.700;2023-08-17T12:03:30;29.20;63.10
46926;DHT22;32667;48.248;-1.700;2023-08-17T12:06:04;29.20;63.20
46926;DHT22;32667;48.248;-1.700;2023-08-17T12:08:30;29.20;63.20
46926;DHT22;32667;48.248;-1.700;2023-08-17T12:10:57;29.30;63.20
46926;DHT22;32667;48.248;-1.700;2023-08-17T12:13:36;29.30;63.00
46926;DHT22;32667;48.248;-1.700;2023-08-17T12:16:03;29.40;63.00
46926;DHT22;32667;48.248;-1.700;2023-08-17T12:18:32;29.50;63.70
46926;DHT22;32667;48.248;-1.700;2023-08-17T12:20:58;29.50;63.00
46926;DHT22;32667;48.248;-1.700;2023-08-17T12:23:24;29.50;63.10
46926;DHT22;32667;48.248;-1.700;2023-08-17T12:25:54;29.60;62.90
46926;DHT22;32667;48.248;-1.700;2023-08-17T12:28:20;29.70;62.90
46926;DHT22;32667;48.248;-1.700;2023-08-17T12:30:47;29.70;62.80
46926;DHT22;32667;48.248;-1.700;2023-08-17T12:33:22;29.80;62.80
46926;DHT22;32667;48.248;-1.700;2023-08-17T12:35:47;29.90;62.70
46926;DHT22;32667;48.248;-1.700;2023-08-17T12:38:15;29.90;62.70
46926;DHT22;32667;48.248;-1.700;2023-08-17T12:40:43;29.90;62.70
46926;DHT22;32667;48.248;-1.700;2023-08-17T12:43:09;30.00;62.70
46926;DHT22;32667;48.248;-1.700;2023-08-17T12:45:34;30.10;62.70
46926;DHT22;32667;48.248;-1.700;2023-08-17T12:48:03;30.10;62.60
46926;DHT22;32667;48.248;-1.700;2023-08-17T12:50:31;30.20;62.60
46926;DHT22;32667;48.248;-1.700;2023-08-17T12:52:59;30.30;62.60
46926;DHT22;32667;48.248;-1.700;2023-08-17T12:55:28;30.40;62.40
46926;DHT22;32667;48.248;-1.700;2023-08-17T12:57:56;30.50;62.30
46926;DHT22;32667;48.248;-1.700;2023-08-17T13:00:22;30.50;62.30
46926;DHT22;32667;48.248;-1.700;2023-08-17T13:02:52;30.50;62.40
46926;DHT22;32667;48.248;-1.700;2023-08-17T13:05:20;30.70;62.90
46926;DHT22;32667;48.248;-1.700;2023-08-17T13:07:46;30.90;62.10
46926;DHT22;32667;48.248;-1.700;2023-08-17T13:10:14;31.10;61.80
46926;DHT22;32667;48.248;-1.700;2023-08-17T13:12:47;31.20;61.60
46926;DHT22;32667;48.248;-1.700;2023-08-17T13:15:18;31.20;61.60
46926;DHT22;32667;48.248;-1.700;2023-08-17T13:17:44;31.20;61.70
46926;DHT22;32667;48.248;-1.700;2023-08-17T13:20:10;31.20;61.90
46926;DHT22;32667;48.248;-1.700;2023-08-17T13:22:40;31.10;62.00
46926;DHT22;32667;48.248;-1.700;2023-08-17T13:25:09;31.00;62.30
46926;DHT22;32667;48.248;-1.700;2023-08-17T13:27:39;30.90;62.60
46926;DHT22;32667;48.248;-1.700;2023-08-17T13:30:08;30.80;62.80
46926;DHT22;32667;48.248;-1.700;2023-08-17T13:32:34;30.70;62.90
46926;DHT22;32667;48.248;-1.700;2023-08-17T13:35:03;30.60;63.00
46926;DHT22;32667;48.248;-1.700;2023-08-17T13:37:35;30.60;63.10
46926;DHT22;32667;48.248;-1.700;2023-08-17T13:40:01;30.50;63.10
46926;DHT22;32667;48.248;-1.700;2023-08-17T13:42:27;30.40;63.20
46926;DHT22;32667;48.248;-1.700;2023-08-17T13:44:53;30.30;63.40
46926;DHT22;32667;48.248;-1.700;2023-08-17T13:47:21;30.30;63.50
46926;DHT22;32667;48.248;-1.700;2023-08-17T13:49:47;30.40;63.50
46926;DHT22;32667;48.248;-1.700;2023-08-17T13:52:17;30.50;63.20
46926;DHT22;32667;48.248;-1.700;2023-08-17T13:54:43;30.60;63.10
46926;DHT22;32667;48.248;-1.700;2023-08-17T13:57:18;30.60;63.10
46926;DHT22;32667;48.248;-1.700;2023-08-17T13:59:43;30.50;63.30
46926;DHT22;32667;48.248;-1.700;2023-08-17T14:02:12;30.60;63.30
46926;DHT22;32667;48.248;-1.700;2023-08-17T14:04:40;30.90;63.00
46926;DHT22;32667;48.248;-1.700;2023-08-17T14:07:05;31.20;62.60
46926;DHT22;32667;48.248;-1.700;2023-08-17T14:09:34;31.40;62.20
46926;DHT22;32667;48.248;-1.700;2023-08-17T14:11:59;31.60;61.90
46926;DHT22;32667;48.248;-1.700;2023-08-17T14:14:30;31.80;61.70
46926;DHT22;32667;48.248;-1.700;2023-08-17T14:16:58;32.00;61.50
46926;DHT22;32667;48.248;-1.700;2023-08-17T14:19:28;32.00;61.50
46926;DHT22;32667;48.248;-1.700;2023-08-17T14:21:54;32.00;61.70
46926;DHT22;32667;48.248;-1.700;2023-08-17T14:24:22;31.90;61.70
46926;DHT22;32667;48.248;-1.700;2023-08-17T14:26:48;31.80;61.90
46926;DHT22;32667;48.248;-1.700;2023-08-17T14:29:21;31.70;62.20
46926;DHT22;32667;48.248;-1.700;2023-08-17T14:31:48;31.60;62.50
46926;DHT22;32667;48.248;-1.700;2023-08-17T14:34:14;31.40;62.80
46926;DHT22;32667;48.248;-1.700;2023-08-17T14:36:40;31.20;63.00
46926;DHT22;32667;48.248;-1.700;2023-08-17T14:39:13;31.10;63.20
46926;DHT22;32667;48.248;-1.700;2023-08-17T14:41:41;31.10;63.40
46926;DHT22;32667;48.248;-1.700;2023-08-17T14:44:07;31.10;63.20
46926;DHT22;32667;48.248;-1.700;2023-08-17T14:46:35;31.10;63.20
46926;DHT22;32667;48.248;-1.700;2023-08-17T14:49:04;31.10;63.20
46926;DHT22;32667;48.248;-1.700;2023-08-17T14:51:29;31.10;63.50
46926;DHT22;32667;48.248;-1.700;2023-08-17T14:53:58;31.00;63.40
46926;DHT22;32667;48.248;-1.700;2023-08-17T14:56:28;30.90;63.50
46926;DHT22;32667;48.248;-1.700;2023-08-17T14:58:56;30.90;63.60
46926;DHT22;32667;48.248;-1.700;2023-08-17T15:01:25;30.90;63.60
46926;DHT22;32667;48.248;-1.700;2023-08-17T15:03:55;30.90;63.60
46926;DHT22;32667;48.248;-1.700;2023-08-17T15:06:21;30.80;63.50
46926;DHT22;32667;48.248;-1.700;2023-08-17T15:08:52;30.80;63.60
46926;DHT22;32667;48.248;-1.700;2023-08-17T15:11:21;30.70;63.70
46926;DHT22;32667;48.248;-1.700;2023-08-17T15:13:49;30.60;63.80
46926;DHT22;32667;48.248;-1.700;2023-08-17T15:16:14;30.50;63.90
46926;DHT22;32667;48.248;-1.700;2023-08-17T15:18:47;30.50;63.90
46926;DHT22;32667;48.248;-1.700;2023-08-17T15:21:13;30.40;64.10
46926;DHT22;32667;48.248;-1.700;2023-08-17T15:23:46;30.40;64.20
46926;DHT22;32667;48.248;-1.700;2023-08-17T15:26:11;30.40;64.10
46926;DHT22;32667;48.248;-1.700;2023-08-17T15:28:40;30.50;64.00
46926;DHT22;32667;48.248;-1.700;2023-08-17T15:31:08;30.50;63.90
46926;DHT22;32667;48.248;-1.700;2023-08-17T15:33:40;30.50;63.80
46926;DHT22;32667;48.248;-1.700;2023-08-17T15:36:06;30.50;63.80
46926;DHT22;32667;48.248;-1.700;2023-08-17T15:38:32;30.50;63.80